createdAt,value
2023-04-06T00:00:03.950Z,53.66
2023-04-06T00:01:03.946Z,55.27
2023-04-06T00:02:03.980Z,56.56
2023-04-06T00:03:04.016Z,57.20
2023-04-06T00:04:03.946Z,54.14
2023-04-06T00:05:03.927Z,53.98
2023-04-06T00:06:03.928Z,53.98
2023-04-06T00:07:03.951Z,53.98
2023-04-06T00:08:03.899Z,38.67
2023-04-06T00:09:03.880Z,38.67
2023-04-06T00:10:03.884Z,38.51
2023-04-06T00:11:03.911Z,38.83
2023-04-06T00:12:03.915Z,38.99
2023-04-06T00:13:03.862Z,39.96
2023-04-06T00:14:03.854Z,39.48
2023-04-06T00:15:03.852Z,39.80
2023-04-06T00:16:03.878Z,38.67
2023-04-06T00:17:03.929Z,38.67
2023-04-06T00:18:03.884Z,39.32
2023-04-06T00:19:03.824Z,39.48
2023-04-06T00:20:03.808Z,41.09
2023-04-06T00:21:03.796Z,40.77
2023-04-06T00:22:03.857Z,39.96
2023-04-06T00:23:03.786Z,40.28
2023-04-06T00:24:03.777Z,39.80
2023-04-06T00:25:03.767Z,39.80
2023-04-06T00:26:04.762Z,40.44
2023-04-06T00:27:03.784Z,39.96
2023-04-06T00:28:03.755Z,41.57
2023-04-06T00:29:03.764Z,41.89
2023-04-06T00:30:03.756Z,53.17
2023-04-06T00:31:03.738Z,53.98
2023-04-06T00:32:03.790Z,54.95
2023-04-06T00:33:03.848Z,55.11
2023-04-06T00:34:03.716Z,55.75
2023-04-06T00:35:03.709Z,55.43
2023-04-06T00:36:03.715Z,55.59
2023-04-06T00:37:03.718Z,55.43
2023-04-06T00:38:03.705Z,55.43
2023-04-06T00:39:03.671Z,55.27
2023-04-06T00:40:03.677Z,55.75
2023-04-06T00:41:03.659Z,55.59
2023-04-06T00:42:03.670Z,55.59
2023-04-06T00:43:04.646Z,56.07
2023-04-06T00:44:03.638Z,42.22
2023-04-06T00:45:03.637Z,37.06
2023-04-06T00:46:03.661Z,37.54
2023-04-06T00:47:03.644Z,38.03
2023-04-06T00:48:03.612Z,39.16
2023-04-06T00:49:03.602Z,40.28
2023-04-06T00:50:03.590Z,42.54
2023-04-06T00:51:03.604Z,43.51
2023-04-06T00:52:03.606Z,40.44
2023-04-06T00:53:03.567Z,40.61
2023-04-06T00:54:03.569Z,52.85
2023-04-06T00:55:03.567Z,54.62
2023-04-06T00:56:03.550Z,54.79
2023-04-06T00:57:03.574Z,53.98
2023-04-06T00:58:03.535Z,53.17
2023-04-06T00:59:03.539Z,52.53
2023-04-06T01:00:03.556Z,51.72
2023-04-06T01:01:03.548Z,38.19
2023-04-06T01:02:03.534Z,38.83
2023-04-06T01:03:03.542Z,37.22
2023-04-06T01:04:03.508Z,37.22
2023-04-06T01:05:03.536Z,39.64
2023-04-06T01:06:03.480Z,39.80
2023-04-06T01:07:03.503Z,38.99
2023-04-06T01:08:03.470Z,38.19
2023-04-06T01:09:03.465Z,39.16
2023-04-06T01:10:03.480Z,51.56
2023-04-06T01:11:03.445Z,54.46
2023-04-06T01:12:03.455Z,55.11
2023-04-06T01:13:03.451Z,56.24
2023-04-06T01:14:03.423Z,56.56
2023-04-06T01:15:03.425Z,56.40
2023-04-06T01:16:03.421Z,56.56
2023-04-06T01:17:03.432Z,56.07
2023-04-06T01:18:03.482Z,56.24
2023-04-06T01:19:03.393Z,57.36
2023-04-06T01:20:03.386Z,56.56
2023-04-06T01:21:03.386Z,57.04
2023-04-06T01:22:03.402Z,56.07
2023-04-06T01:23:03.365Z,56.40
2023-04-06T01:24:03.359Z,56.56
2023-04-06T01:25:03.374Z,36.90
2023-04-06T01:26:03.341Z,37.22
2023-04-06T01:27:03.369Z,41.25
2023-04-06T01:28:03.333Z,41.57
2023-04-06T01:29:03.354Z,39.32
2023-04-06T01:30:03.341Z,42.06
2023-04-06T01:31:03.352Z,39.64
2023-04-06T01:32:03.363Z,40.44
2023-04-06T01:33:03.346Z,40.93
2023-04-06T01:34:03.298Z,40.93
2023-04-06T01:35:03.291Z,50.43
2023-04-06T01:36:03.304Z,53.66
2023-04-06T01:37:03.292Z,53.50
2023-04-06T01:38:03.339Z,53.33
2023-04-06T01:39:03.257Z,54.14
2023-04-06T01:40:03.249Z,53.82
2023-04-06T01:41:03.229Z,53.50
2023-04-06T01:42:03.250Z,46.08
2023-04-06T01:43:03.212Z,37.87
2023-04-06T01:44:03.219Z,39.80
2023-04-06T01:45:03.214Z,38.35
2023-04-06T01:46:03.213Z,38.83
2023-04-06T01:47:03.228Z,44.96
2023-04-06T01:48:03.203Z,39.16
2023-04-06T01:49:03.169Z,39.48
2023-04-06T01:50:03.176Z,39.96
2023-04-06T01:51:03.171Z,38.83
2023-04-06T01:52:03.186Z,38.83
2023-04-06T01:53:03.139Z,39.96
2023-04-06T01:54:03.135Z,43.34
2023-04-06T01:55:03.149Z,53.01
2023-04-06T01:56:03.125Z,54.30
2023-04-06T01:57:03.139Z,55.27
2023-04-06T01:58:03.101Z,56.07
2023-04-06T01:59:03.106Z,56.40
2023-04-06T02:00:03.106Z,56.88
2023-04-06T02:01:03.201Z,57.20
2023-04-06T02:02:03.166Z,58.01
2023-04-06T02:03:03.173Z,57.04
2023-04-06T02:04:03.069Z,57.69
2023-04-06T02:05:03.075Z,58.01
2023-04-06T02:06:03.045Z,58.65
2023-04-06T02:07:03.083Z,58.01
2023-04-06T02:08:03.029Z,58.01
2023-04-06T02:09:03.028Z,58.01
2023-04-06T02:10:03.018Z,58.17
2023-04-06T02:11:03.017Z,58.01
2023-04-06T02:12:03.042Z,57.69
2023-04-06T02:13:03.002Z,57.52
2023-04-06T02:14:02.996Z,58.17
2023-04-06T02:15:02.976Z,58.33
2023-04-06T02:16:03.012Z,58.49
2023-04-06T02:17:03.021Z,57.85
2023-04-06T02:18:03.014Z,57.36
2023-04-06T02:19:02.969Z,58.01
2023-04-06T02:20:02.974Z,57.85
2023-04-06T02:21:02.952Z,58.33
2023-04-06T02:22:02.933Z,57.20
2023-04-06T02:23:02.944Z,57.85
2023-04-06T02:24:02.918Z,57.52
2023-04-06T02:25:02.911Z,57.69
2023-04-06T02:26:02.901Z,57.69
2023-04-06T02:27:02.902Z,40.93
2023-04-06T02:28:02.943Z,42.22
2023-04-06T02:29:02.884Z,41.89
2023-04-06T02:30:02.891Z,43.18
2023-04-06T02:31:02.871Z,41.89
2023-04-06T02:32:02.873Z,42.06
2023-04-06T02:33:02.982Z,42.70
2023-04-06T02:34:02.848Z,41.57
2023-04-06T02:35:02.844Z,41.25
2023-04-06T02:36:02.857Z,42.06
2023-04-06T02:37:02.824Z,40.93
2023-04-06T02:38:02.843Z,40.77
2023-04-06T02:39:02.808Z,41.57
2023-04-06T02:40:02.814Z,40.28
2023-04-06T02:41:02.801Z,40.44
2023-04-06T02:42:02.786Z,41.57
2023-04-06T02:43:02.808Z,41.89
2023-04-06T02:44:02.768Z,41.41
2023-04-06T02:45:02.773Z,45.60
2023-04-06T02:46:02.872Z,43.02
2023-04-06T02:47:02.760Z,42.70
2023-04-06T02:48:02.788Z,43.18
2023-04-06T02:49:02.765Z,41.41
2023-04-06T02:50:02.735Z,43.99
2023-04-06T02:51:02.728Z,41.89
2023-04-06T02:52:02.719Z,40.44
2023-04-06T02:53:02.737Z,41.57
2023-04-06T02:54:02.710Z,42.22
2023-04-06T02:55:02.720Z,42.70
2023-04-06T02:56:02.727Z,41.57
2023-04-06T02:57:02.694Z,43.18
2023-04-06T02:58:02.718Z,40.61
2023-04-06T02:59:02.743Z,44.47
2023-04-06T03:00:02.669Z,41.41
2023-04-06T03:01:02.743Z,41.25
2023-04-06T03:02:02.655Z,42.22
2023-04-06T03:03:02.749Z,41.41
2023-04-06T03:04:02.640Z,44.15
2023-04-06T03:05:02.670Z,42.06
2023-04-06T03:06:02.622Z,43.02
2023-04-06T03:07:02.610Z,41.25
2023-04-06T03:08:02.648Z,42.54
2023-04-06T03:09:02.605Z,43.51
2023-04-06T03:10:02.641Z,41.73
2023-04-06T03:11:03.620Z,41.57
2023-04-06T03:12:02.579Z,42.22
2023-04-06T03:13:02.603Z,40.93
2023-04-06T03:14:03.570Z,46.08
2023-04-06T03:15:02.578Z,42.22
2023-04-06T03:16:02.656Z,43.99
2023-04-06T03:17:02.548Z,46.08
2023-04-06T03:18:02.599Z,43.51
2023-04-06T03:19:02.525Z,41.41
2023-04-06T03:20:02.542Z,43.99
2023-04-06T03:21:02.529Z,42.86
2023-04-06T03:22:02.524Z,44.96
2023-04-06T03:23:02.537Z,41.57
2023-04-06T03:24:02.500Z,44.79
2023-04-06T03:25:03.726Z,47.86
2023-04-06T03:26:03.474Z,47.05
2023-04-06T03:27:02.509Z,45.44
2023-04-06T03:28:02.497Z,44.15
2023-04-06T03:29:02.464Z,46.25
2023-04-06T03:30:02.440Z,48.34
2023-04-06T03:31:02.500Z,43.99
2023-04-06T03:32:02.428Z,45.12
2023-04-06T03:33:02.478Z,47.37
2023-04-06T03:34:02.430Z,47.70
2023-04-06T03:35:02.413Z,50.43
2023-04-06T03:36:02.451Z,46.89
2023-04-06T03:37:09.755Z,47.05
2023-04-06T03:38:04.417Z,47.53
2023-04-06T03:39:02.391Z,50.43
2023-04-06T03:40:02.375Z,48.50
2023-04-06T03:41:02.365Z,47.70
2023-04-06T03:42:02.360Z,43.02
2023-04-06T03:43:02.383Z,43.02
2023-04-06T03:44:02.357Z,49.95
2023-04-06T03:45:02.346Z,44.79
2023-04-06T03:46:02.405Z,48.98
2023-04-06T03:47:02.316Z,43.67
2023-04-06T03:48:02.393Z,41.89
2023-04-06T03:49:02.312Z,49.95
2023-04-06T03:50:02.297Z,48.34
2023-04-06T03:51:02.292Z,43.34
2023-04-06T03:52:02.303Z,43.67
2023-04-06T03:53:02.311Z,45.44
2023-04-06T03:54:02.270Z,46.57
2023-04-06T03:55:02.265Z,50.27
2023-04-06T03:56:04.624Z,49.95
2023-04-06T03:57:03.249Z,46.25
2023-04-06T03:58:02.280Z,46.25
2023-04-06T03:59:02.278Z,48.98
2023-04-06T04:00:02.241Z,45.92
2023-04-06T04:01:02.214Z,46.25
2023-04-06T04:02:02.332Z,47.37
2023-04-06T04:03:02.289Z,50.76
2023-04-06T04:04:02.217Z,46.41
2023-04-06T04:05:02.245Z,49.31
2023-04-06T04:06:02.187Z,45.92
2023-04-06T04:07:02.173Z,46.41
2023-04-06T04:08:02.229Z,50.76
2023-04-06T04:09:02.157Z,44.63
2023-04-06T04:10:02.154Z,45.28
2023-04-06T04:11:02.154Z,52.85
2023-04-06T04:12:02.142Z,52.69
2023-04-06T04:13:02.155Z,46.57
2023-04-06T04:14:02.129Z,48.50
2023-04-06T04:15:02.125Z,45.92
2023-04-06T04:16:02.131Z,52.85
2023-04-06T04:17:02.115Z,52.69
2023-04-06T04:18:02.181Z,47.05
2023-04-06T04:19:02.089Z,53.66
2023-04-06T04:20:02.090Z,52.05
2023-04-06T04:21:02.078Z,47.05
2023-04-06T04:22:02.061Z,46.08
2023-04-06T04:23:02.083Z,50.27
2023-04-06T04:24:02.051Z,48.66
2023-04-06T04:25:02.054Z,47.21
2023-04-06T04:26:02.036Z,47.70
2023-04-06T04:27:02.080Z,48.18
2023-04-06T04:28:02.073Z,49.15
2023-04-06T04:29:02.022Z,47.53
2023-04-06T04:30:02.009Z,48.66
2023-04-06T04:31:02.010Z,53.33
2023-04-06T04:32:02.023Z,48.18
2023-04-06T04:33:02.025Z,47.53
2023-04-06T04:34:02.000Z,48.50
2023-04-06T04:35:01.981Z,46.08
2023-04-06T04:36:02.020Z,50.76
2023-04-06T04:37:01.976Z,53.66
2023-04-06T04:38:02.006Z,47.05
2023-04-06T04:39:01.948Z,47.53
2023-04-06T04:40:01.951Z,48.66
2023-04-06T04:41:01.940Z,54.79
2023-04-06T04:42:01.947Z,48.82
2023-04-06T04:43:33.873Z,47.86
2023-04-06T04:44:01.924Z,48.18
2023-04-06T04:45:01.911Z,49.63
2023-04-06T04:46:01.973Z,46.25
2023-04-06T04:47:01.892Z,49.63
2023-04-06T04:48:02.037Z,48.50
2023-04-06T04:49:01.898Z,48.98
2023-04-06T04:50:01.901Z,49.15
2023-04-06T04:51:01.882Z,51.24
2023-04-06T04:52:01.867Z,47.53
2023-04-06T04:53:01.932Z,50.76
2023-04-06T04:54:01.867Z,55.27
2023-04-06T04:55:01.840Z,56.56
2023-04-06T04:56:01.831Z,57.85
2023-04-06T04:57:01.829Z,57.85
2023-04-06T04:58:01.851Z,58.01
2023-04-06T04:59:01.878Z,55.91
2023-04-06T05:00:01.816Z,57.52
2023-04-06T05:01:01.863Z,58.01
2023-04-06T05:02:01.916Z,58.01
2023-04-06T05:03:01.875Z,57.52
2023-04-06T05:04:01.777Z,58.97
2023-04-06T05:05:01.805Z,58.01
2023-04-06T05:06:01.764Z,57.52
2023-04-06T05:07:01.762Z,58.01
2023-04-06T05:08:01.780Z,57.36
2023-04-06T05:09:01.740Z,50.27
2023-04-06T05:10:01.737Z,50.92
2023-04-06T05:11:01.730Z,48.18
2023-04-06T05:12:01.728Z,45.60
2023-04-06T05:13:01.774Z,56.24
2023-04-06T05:14:01.889Z,58.17
2023-04-06T05:15:01.702Z,57.36
2023-04-06T05:16:01.765Z,58.49
2023-04-06T05:17:01.703Z,57.20
2023-04-06T05:18:01.762Z,58.97
2023-04-06T05:19:01.678Z,59.46
2023-04-06T05:20:01.685Z,60.91
2023-04-06T05:21:01.670Z,59.14
2023-04-06T05:22:01.699Z,57.85
2023-04-06T05:23:01.674Z,58.49
2023-04-06T05:24:01.688Z,58.01
2023-04-06T05:25:01.632Z,58.49
2023-04-06T05:26:01.627Z,58.01
2023-04-06T05:27:01.609Z,57.20
2023-04-06T05:28:01.642Z,57.69
2023-04-06T05:29:01.612Z,58.49
2023-04-06T05:30:01.605Z,57.52
2023-04-06T05:31:01.622Z,56.88
2023-04-06T05:32:01.586Z,58.65
2023-04-06T05:33:01.680Z,58.49
2023-04-06T05:34:01.580Z,58.17
2023-04-06T05:35:01.564Z,58.17
2023-04-06T05:36:01.653Z,57.36
2023-04-06T05:37:01.539Z,57.69
2023-04-06T05:38:01.627Z,57.85
2023-04-06T05:39:01.549Z,48.98
2023-04-06T05:40:01.531Z,47.53
2023-04-06T05:41:01.507Z,47.53
2023-04-06T05:42:01.509Z,49.63
2023-04-06T05:43:01.526Z,50.27
2023-04-06T05:44:01.488Z,51.72
2023-04-06T05:45:01.486Z,53.98
2023-04-06T05:46:01.535Z,47.86
2023-04-06T05:47:01.500Z,48.18
2023-04-06T05:48:01.515Z,55.59
2023-04-06T05:49:01.518Z,49.63
2023-04-06T05:50:01.448Z,50.76
2023-04-06T05:51:01.424Z,51.24
2023-04-06T05:52:02.492Z,54.30
2023-04-06T05:53:01.416Z,51.56
2023-04-06T05:54:01.433Z,49.79
2023-04-06T05:55:01.433Z,45.92
2023-04-06T05:56:01.384Z,46.25
2023-04-06T05:57:01.431Z,54.95
2023-04-06T05:58:01.397Z,48.34
2023-04-06T05:59:01.509Z,46.73
2023-04-06T06:00:01.354Z,47.86
2023-04-06T06:01:01.366Z,44.96
2023-04-06T06:02:01.370Z,48.34
2023-04-06T06:03:01.527Z,49.47
2023-04-06T06:04:01.357Z,43.67
2023-04-06T06:05:01.385Z,55.43
2023-04-06T06:06:01.324Z,42.86
2023-04-06T06:07:01.305Z,44.47
2023-04-06T06:08:01.299Z,50.43
2023-04-06T06:09:01.328Z,47.53
2023-04-06T06:10:01.298Z,45.28
2023-04-06T06:11:01.271Z,54.14
2023-04-06T06:12:01.263Z,46.73
2023-04-06T06:13:01.262Z,49.31
2023-04-06T06:14:01.301Z,47.37
2023-04-06T06:15:01.251Z,51.56
2023-04-06T06:16:01.248Z,49.31
2023-04-06T06:17:01.228Z,53.01
2023-04-06T06:18:01.381Z,46.25
2023-04-06T06:19:01.302Z,46.08
2023-04-06T06:20:01.232Z,48.02
2023-04-06T06:21:01.206Z,45.44
2023-04-06T06:22:01.199Z,43.18
2023-04-06T06:23:01.217Z,48.82
2023-04-06T06:24:01.207Z,46.25
2023-04-06T06:25:01.167Z,49.79
2023-04-06T06:26:01.156Z,46.57
2023-04-06T06:27:01.187Z,49.31
2023-04-06T06:28:01.143Z,51.08
2023-04-06T06:29:01.254Z,48.82
2023-04-06T06:30:01.131Z,43.99
2023-04-06T06:31:01.136Z,48.02
2023-04-06T06:32:01.287Z,45.92
2023-04-06T06:33:01.178Z,44.63
2023-04-06T06:34:01.162Z,48.34
2023-04-06T06:35:01.199Z,46.08
2023-04-06T06:36:01.140Z,48.82
2023-04-06T06:37:01.090Z,47.86
2023-04-06T06:38:01.090Z,45.44
2023-04-06T06:39:01.091Z,44.96
2023-04-06T06:40:01.052Z,45.76
2023-04-06T06:41:01.080Z,48.02
2023-04-06T06:42:01.039Z,51.40
2023-04-06T06:43:01.041Z,48.18
2023-04-06T06:44:01.278Z,45.92
2023-04-06T06:45:01.009Z,49.31
2023-04-06T06:46:01.034Z,50.27
2023-04-06T06:47:01.013Z,47.05
2023-04-06T06:48:01.050Z,48.02
2023-04-06T06:49:01.014Z,49.47
2023-04-06T06:50:01.026Z,50.27
2023-04-06T06:51:00.992Z,46.89
2023-04-06T06:52:01.003Z,54.95
2023-04-06T06:53:00.967Z,45.12
2023-04-06T06:54:00.979Z,48.02
2023-04-06T06:55:01.063Z,47.86
2023-04-06T06:56:00.958Z,50.92
2023-04-06T06:57:00.928Z,46.89
2023-04-06T06:58:01.209Z,53.17
2023-04-06T06:59:00.962Z,46.08
2023-04-06T07:00:01.023Z,47.86
2023-04-06T07:01:01.071Z,48.98
2023-04-06T07:02:00.916Z,43.51
2023-04-06T07:03:01.016Z,45.60
2023-04-06T07:04:01.000Z,50.43
2023-04-06T07:05:00.941Z,45.76
2023-04-06T07:06:00.882Z,50.27
2023-04-06T07:07:00.883Z,48.50
2023-04-06T07:08:01.018Z,44.15
2023-04-06T07:09:00.860Z,46.89
2023-04-06T07:10:00.868Z,48.50
2023-04-06T07:11:00.834Z,49.79
2023-04-06T07:12:00.893Z,46.08
2023-04-06T07:13:00.821Z,47.53
2023-04-06T07:14:00.808Z,52.53
2023-04-06T07:15:00.825Z,52.05
2023-04-06T07:16:00.820Z,48.50
2023-04-06T07:17:00.842Z,47.53
2023-04-06T07:18:00.816Z,52.69
2023-04-06T07:19:00.986Z,44.79
2023-04-06T07:20:00.789Z,51.56
2023-04-06T07:21:00.816Z,43.99
2023-04-06T07:22:00.741Z,49.63
2023-04-06T07:23:00.828Z,50.60
2023-04-06T07:24:00.744Z,48.50
2023-04-06T07:25:00.767Z,52.85
2023-04-06T07:26:00.731Z,51.24
2023-04-06T07:27:00.753Z,50.76
2023-04-06T07:28:00.704Z,49.31
2023-04-06T07:29:00.680Z,51.56
2023-04-06T07:30:00.841Z,48.66
2023-04-06T07:31:00.672Z,53.98
2023-04-06T07:32:00.675Z,42.06
2023-04-06T07:33:00.748Z,48.50
2023-04-06T07:34:00.658Z,51.08
2023-04-06T07:35:00.721Z,49.15
2023-04-06T07:36:00.685Z,48.66
2023-04-06T07:37:01.801Z,50.92
2023-04-06T07:38:00.616Z,52.69
2023-04-06T07:39:00.618Z,50.92
2023-04-06T07:40:00.647Z,54.95
2023-04-06T07:41:00.601Z,58.01
2023-04-06T07:42:00.617Z,44.63
2023-04-06T07:43:00.587Z,54.79
2023-04-06T07:44:00.678Z,45.76
2023-04-06T07:45:00.604Z,53.33
2023-04-06T07:46:00.608Z,52.69
2023-04-06T07:47:00.549Z,49.63
2023-04-06T07:48:00.605Z,55.27
2023-04-06T07:49:00.541Z,44.79
2023-04-06T07:50:00.563Z,50.27
2023-04-06T07:51:00.525Z,45.92
2023-04-06T07:52:00.575Z,53.50
2023-04-06T07:53:00.508Z,43.67
2023-04-06T07:54:00.503Z,46.57
2023-04-06T07:55:00.522Z,52.53
2023-04-06T07:56:00.488Z,45.92
2023-04-06T07:57:00.478Z,49.31
2023-04-06T07:58:00.490Z,48.66
2023-04-06T07:59:00.505Z,51.88
2023-04-06T08:00:00.506Z,46.89
2023-04-06T08:01:00.451Z,45.92
2023-04-06T08:02:00.467Z,45.92
2023-04-06T08:03:00.524Z,46.57
2023-04-06T08:04:00.598Z,50.60
2023-04-06T08:05:21.120Z,50.27
2023-04-06T08:06:01.417Z,51.56
2023-04-06T08:07:00.434Z,51.40
2023-04-06T08:08:00.410Z,49.31
2023-04-06T08:09:00.396Z,48.18
2023-04-06T08:10:00.428Z,49.15
2023-04-06T08:11:02.009Z,45.28
2023-04-06T08:12:01.471Z,43.67
2023-04-06T08:13:00.372Z,51.88
2023-04-06T08:14:00.356Z,46.25
2023-04-06T08:15:00.379Z,47.05
2023-04-06T08:16:00.370Z,49.79
2023-04-06T08:17:00.326Z,45.76
2023-04-06T08:18:00.357Z,48.34
2023-04-06T08:19:00.317Z,48.66
2023-04-06T08:20:00.326Z,47.05
2023-04-06T08:21:00.353Z,51.72
2023-04-06T08:22:00.297Z,49.47
2023-04-06T08:23:00.276Z,47.53
2023-04-06T08:24:00.270Z,46.41
2023-04-06T08:25:00.288Z,47.37
2023-04-06T08:26:00.257Z,48.82
2023-04-06T08:27:00.240Z,47.53
2023-04-06T08:28:00.322Z,42.70
2023-04-06T08:29:00.276Z,45.76
2023-04-06T08:30:00.275Z,46.73
2023-04-06T08:31:00.239Z,49.31
2023-04-06T08:32:00.212Z,48.82
2023-04-06T08:33:00.329Z,46.89
2023-04-06T08:34:00.198Z,46.25
2023-04-06T08:35:00.215Z,50.92
2023-04-06T08:36:00.200Z,50.92
2023-04-06T08:37:00.170Z,47.53
2023-04-06T08:38:00.278Z,45.60
2023-04-06T08:39:00.168Z,53.17
2023-04-06T08:40:00.209Z,49.79
2023-04-06T08:41:00.169Z,49.31
2023-04-06T08:42:00.144Z,46.25
2023-04-06T08:43:00.182Z,51.88
2023-04-06T08:44:00.116Z,52.85
2023-04-06T08:45:00.182Z,43.02
2023-04-06T08:46:00.164Z,47.21
2023-04-06T08:47:00.116Z,44.96
2023-04-06T08:48:00.258Z,47.37
2023-04-06T08:49:00.097Z,51.40
2023-04-06T08:50:00.195Z,51.08
2023-04-06T08:51:00.090Z,51.56
2023-04-06T08:52:00.123Z,54.79
2023-04-06T08:53:00.068Z,51.88
2023-04-06T08:54:00.102Z,49.63
2023-04-06T08:55:00.062Z,49.95
2023-04-06T08:56:00.715Z,48.82
2023-04-06T08:57:00.024Z,54.95
2023-04-06T08:58:00.019Z,55.27
2023-04-06T08:59:00.063Z,56.40
2023-04-06T08:59:59.998Z,55.91
2023-04-06T09:01:00.025Z,54.95
2023-04-06T09:02:00.003Z,53.98
2023-04-06T09:03:00.147Z,53.17
2023-04-06T09:04:00.093Z,54.79
2023-04-06T09:05:00.020Z,55.27
2023-04-06T09:06:00.030Z,55.27
2023-04-06T09:06:59.973Z,56.07
2023-04-06T09:08:00.934Z,53.66
2023-04-06T09:08:59.931Z,54.30
2023-04-06T09:09:59.929Z,50.27
2023-04-06T09:10:59.941Z,44.79
2023-04-06T09:11:59.904Z,49.95
2023-04-06T09:12:59.903Z,54.46
2023-04-06T09:13:59.900Z,55.75
2023-04-06T09:14:59.917Z,55.43
2023-04-06T09:15:59.952Z,45.28
2023-04-06T09:16:59.880Z,49.63
2023-04-06T09:17:59.942Z,49.15
2023-04-06T09:18:59.851Z,44.31
2023-04-06T09:19:59.909Z,54.46
2023-04-06T09:20:59.866Z,50.11
2023-04-06T09:21:59.832Z,49.15
2023-04-06T09:22:59.863Z,48.18
2023-04-06T09:23:59.988Z,48.98
2023-04-06T09:24:59.812Z,49.31
2023-04-06T09:25:59.837Z,46.08
2023-04-06T09:26:59.835Z,45.12
2023-04-06T09:27:59.787Z,46.25
2023-04-06T09:28:59.772Z,46.57
2023-04-06T09:30:00.771Z,48.34
2023-04-06T09:30:59.802Z,43.51
2023-04-06T09:31:59.868Z,49.31
2023-04-06T09:32:59.818Z,49.95
2023-04-06T09:33:59.768Z,49.31
2023-04-06T09:34:59.740Z,47.53
2023-04-06T09:35:59.804Z,47.86
2023-04-06T09:36:59.725Z,47.53
2023-04-06T09:37:59.727Z,40.77
2023-04-06T09:38:59.702Z,43.99
2023-04-06T09:39:59.707Z,44.96
2023-04-06T09:41:01.226Z,52.85
2023-04-06T09:42:00.757Z,47.86
2023-04-06T09:42:59.719Z,52.37
2023-04-06T09:43:59.664Z,47.37
2023-04-06T09:44:59.666Z,45.28
2023-04-06T09:45:59.720Z,52.05
2023-04-06T09:47:01.146Z,44.96
2023-04-06T09:48:00.772Z,49.95
2023-04-06T09:48:59.629Z,50.11
2023-04-06T09:49:59.634Z,47.05
2023-04-06T09:50:59.639Z,48.66
2023-04-06T09:51:59.619Z,46.89
2023-04-06T09:52:59.602Z,48.82
2023-04-06T09:53:59.597Z,44.96
2023-04-06T09:54:59.581Z,43.67
2023-04-06T09:55:59.601Z,50.92
2023-04-06T09:56:59.620Z,44.15
2023-04-06T09:57:59.597Z,43.83
2023-04-06T09:58:59.584Z,45.28
2023-04-06T09:59:59.546Z,46.89
2023-04-06T10:00:59.697Z,45.12
2023-04-06T10:01:59.527Z,47.37
2023-04-06T10:02:59.573Z,41.89
2023-04-06T10:03:59.718Z,50.76
2023-04-06T10:04:59.514Z,44.31
2023-04-06T10:05:59.607Z,46.73
2023-04-06T10:06:59.492Z,47.70
2023-04-06T10:08:01.129Z,51.08
2023-04-06T10:09:00.485Z,44.96
2023-04-06T10:09:59.503Z,53.17
2023-04-06T10:10:59.484Z,47.21
2023-04-06T10:11:59.447Z,49.31
2023-04-06T10:12:59.434Z,52.05
2023-04-06T10:14:00.442Z,49.47
2023-04-06T10:14:59.419Z,49.79
2023-04-06T10:15:59.503Z,48.02
2023-04-06T10:16:59.410Z,48.66
2023-04-06T10:17:59.420Z,49.15
2023-04-06T10:18:59.385Z,47.86
2023-04-06T10:19:59.384Z,42.06
2023-04-06T10:20:59.377Z,42.54
2023-04-06T10:21:59.399Z,47.37
2023-04-06T10:22:59.360Z,44.15
2023-04-06T10:23:59.354Z,46.41
2023-04-06T10:24:59.351Z,47.05
2023-04-06T10:25:59.333Z,46.57
2023-04-06T10:26:59.348Z,43.34
2023-04-06T10:27:59.323Z,49.47
2023-04-06T10:28:59.329Z,51.24
2023-04-06T10:29:59.314Z,48.02
2023-04-06T10:30:59.321Z,45.28
2023-04-06T10:31:59.376Z,48.02
2023-04-06T10:32:59.476Z,46.25
2023-04-06T10:33:59.280Z,51.08
2023-04-06T10:34:59.282Z,49.63
2023-04-06T10:35:59.334Z,47.05
2023-04-06T10:36:59.286Z,45.92
2023-04-06T10:37:59.245Z,49.15
2023-04-06T10:38:59.373Z,47.70
2023-04-06T10:39:59.276Z,46.41
2023-04-06T10:40:59.229Z,50.43
2023-04-06T10:41:59.259Z,49.79
2023-04-06T10:43:31.678Z,46.41
2023-04-06T10:43:59.209Z,51.72
2023-04-06T10:44:59.197Z,45.76
2023-04-06T10:45:59.270Z,43.51
2023-04-06T10:46:59.302Z,43.02
2023-04-06T10:47:59.250Z,48.34
2023-04-06T10:48:59.170Z,45.60
2023-04-06T10:49:59.160Z,45.12
2023-04-06T10:50:59.155Z,45.76
2023-04-06T10:51:59.341Z,43.83
2023-04-06T10:52:59.135Z,48.34
2023-04-06T10:53:59.125Z,45.60
2023-04-06T10:54:59.142Z,43.02
2023-04-06T10:55:59.117Z,43.02
2023-04-06T10:56:59.132Z,49.31
2023-04-06T10:57:59.099Z,45.92
2023-04-06T10:58:59.125Z,47.86
2023-04-06T10:59:59.088Z,45.92
2023-04-06T11:00:59.108Z,47.05
2023-04-06T11:01:59.094Z,48.50
2023-04-06T11:02:59.083Z,48.34
2023-04-06T11:03:59.148Z,48.82
2023-04-06T11:04:59.061Z,42.86
2023-04-06T11:05:59.027Z,48.66
2023-04-06T11:06:59.063Z,42.70
2023-04-06T11:07:59.024Z,44.15
2023-04-06T11:08:59.005Z,51.88
2023-04-06T11:10:14.007Z,46.08
2023-04-06T11:11:01.014Z,49.63
2023-04-06T11:11:59.055Z,50.11
2023-04-06T11:12:58.980Z,47.21
2023-04-06T11:13:58.966Z,45.60
2023-04-06T11:14:58.966Z,48.02
2023-04-06T11:15:58.951Z,46.08
2023-04-06T11:16:59.057Z,49.63
2023-04-06T11:17:59.014Z,51.88
2023-04-06T11:18:58.939Z,53.66
2023-04-06T11:19:58.923Z,53.01
2023-04-06T11:20:58.918Z,50.11
2023-04-06T11:21:59.928Z,51.72
2023-04-06T11:22:59.910Z,48.82
2023-04-06T11:23:58.898Z,53.33
2023-04-06T11:24:58.886Z,44.15
2023-04-06T11:25:58.885Z,45.60
2023-04-06T11:26:58.933Z,44.15
2023-04-06T11:27:58.885Z,51.24
2023-04-06T11:28:58.856Z,48.82
2023-04-06T11:29:58.864Z,50.76
2023-04-06T11:30:59.979Z,49.63
2023-04-06T11:31:58.837Z,46.25
2023-04-06T11:32:58.874Z,49.63
2023-04-06T11:33:58.821Z,44.31
2023-04-06T11:34:58.805Z,44.15
2023-04-06T11:35:58.873Z,49.47
2023-04-06T11:36:58.799Z,45.60
2023-04-06T11:38:00.456Z,43.34
2023-04-06T11:38:59.783Z,50.27
2023-04-06T11:39:58.798Z,51.56
2023-04-06T11:40:58.756Z,49.47
2023-04-06T11:41:58.751Z,50.43
2023-04-06T11:42:58.775Z,47.86
2023-04-06T11:43:58.741Z,48.82
2023-04-06T11:44:58.733Z,52.21
2023-04-06T11:45:58.729Z,49.47
2023-04-06T11:46:58.710Z,49.63
2023-04-06T11:47:58.769Z,46.57
2023-04-06T11:48:58.771Z,43.99
2023-04-06T11:49:58.693Z,40.93
2023-04-06T11:50:58.690Z,42.54
2023-04-06T11:51:58.717Z,48.18
2023-04-06T11:52:58.688Z,50.43
2023-04-06T11:53:59.730Z,45.12
2023-04-06T11:54:58.666Z,47.37
2023-04-06T11:55:58.673Z,53.33
2023-04-06T11:56:58.673Z,48.18
2023-04-06T11:57:58.636Z,46.08
2023-04-06T11:58:58.732Z,42.70
2023-04-06T11:59:58.619Z,49.31
2023-04-06T12:00:58.608Z,46.57
2023-04-06T12:01:58.611Z,44.31
2023-04-06T12:02:58.660Z,46.57
2023-04-06T12:03:58.668Z,48.98
2023-04-06T12:04:58.592Z,43.83
2023-04-06T12:05:59.437Z,42.38
2023-04-06T12:06:59.558Z,46.41
2023-04-06T12:08:00.126Z,43.18
2023-04-06T12:08:58.616Z,52.21
2023-04-06T12:09:58.537Z,48.50
2023-04-06T12:10:58.534Z,45.76
2023-04-06T12:11:58.512Z,51.88
2023-04-06T12:12:58.508Z,49.63
2023-04-06T12:13:58.533Z,47.21
2023-04-06T12:14:58.491Z,45.28
2023-04-06T12:15:58.543Z,48.50
2023-04-06T12:16:58.484Z,53.66
2023-04-06T12:17:58.496Z,48.02
2023-04-06T12:18:58.554Z,41.09
2023-04-06T12:20:05.149Z,51.40
2023-04-06T12:21:00.445Z,44.47
2023-04-06T12:21:58.453Z,42.54
2023-04-06T12:22:58.565Z,46.73
2023-04-06T12:23:58.453Z,46.41
2023-04-06T12:24:58.422Z,48.02
2023-04-06T12:25:58.409Z,44.31
2023-04-06T12:27:08.698Z,47.86
2023-04-06T12:28:00.400Z,50.92
2023-04-06T12:28:58.432Z,49.95
2023-04-06T12:29:58.380Z,44.63
2023-04-06T12:30:58.389Z,45.92
2023-04-06T12:31:58.466Z,49.31
2023-04-06T12:32:58.439Z,52.53
2023-04-06T12:33:58.381Z,47.37
2023-04-06T12:34:58.343Z,45.60
2023-04-06T12:35:58.381Z,51.08
2023-04-06T12:36:58.458Z,49.79
2023-04-06T12:37:58.318Z,49.47
2023-04-06T12:38:58.340Z,45.60
2023-04-06T12:39:58.307Z,49.63
2023-04-06T12:40:58.292Z,49.47
2023-04-06T12:41:58.296Z,49.79
2023-04-06T12:42:58.281Z,52.53
2023-04-06T12:43:58.303Z,47.05
2023-04-06T12:44:58.269Z,47.37
2023-04-06T12:45:58.267Z,45.92
2023-04-06T12:46:58.299Z,51.72
2023-04-06T12:47:58.288Z,48.82
2023-04-06T12:48:58.257Z,49.31
2023-04-06T12:49:58.229Z,46.73
2023-04-06T12:50:58.225Z,52.69
2023-04-06T12:51:58.210Z,51.40